Toddville, IA (52341)

12:27 AM CDT on May 23, 2015 (GMT -0500)
Midway, IA | | Change Station
CLOSE
Current Station
Personal Weather Station
Location: Toddville, IA
Elevation: 837 ft
Nearby Weather Stations

Elev 837 ft 42.11 °N, 91.70 °W | Updated 16 seconds ago

Overcast
Overcast
56.8 °F
Feels Like 56.8 °F
N
0.0
Wind Variable Wind from ENE
Gusts 0.0 mph

Today
High -- | Low -- °F
--% Chance of Precip.
Yesterday
High -- | Low -- °F
Precip. -- in
5:39 AM 8:28 PM
Waxing Crescent, 27% visible
Pressure 30.21 in
Visibility 10.0 miles
Clouds Clear
Dew Point 48 °F
Humidity 73%
Rainfall 0.00 in
Snow Depth Not available.
UV 0 out of 12
Pollen 8.80 out of 12
Air Quality Not available.
Flu Activity Sporadic
METAR KCID 230452Z AUTO 22005KT 10SM CLR 16/08 A3022 RMK AO2 SLP229 T01610083

More Conditions Fewer Conditions

Pressure 30.21 in
Visibility 10.0 miles
Clouds Clear
Dew Point 48 °F
Humidity 73%
Rainfall 0.00 in
Snow Depth Not available.
UV 0 out of 12
Pollen 8.80 out of 12
Air Quality Not available.
Flu Activity Sporadic
METAR KCID 230452Z AUTO 22005KT 10SM CLR 16/08 A3022 RMK AO2 SLP229 T01610083

More Conditions Fewer Conditions

10-Day Weather Forecast

Almanac

Astronomy

May. 23, 2015 Rise Set
Actual Time
Civil Twilight
Nautical Twilight
Astronomical Twilight
Moon
Length of Visible Light
Length of Day
Tomorrow will be .
, % of the Moon is Illuminated

Today's Extremes

State Highs State Lows

Community

WunderPhotos

Upload Photos

1,823,392 photos uploaded!

WunderBlogs® & News

Nearby

Air Quality

  Air Quality AQ Index Pollutant
Not available.

Snow Depth

Station Depth Elevation

Earthquake Activity

City Distance Mag. Time & Date
Minimum magnitude displayed is 2.5.

Coastal Water Temperatures

Place Temperature

Stations

Nearby Weather Stations

Station Location Temp. Windchill Dew Point Humidity Wind Precip. Elev Updated Type